sensor_id;sensor_type;location;lat;lon;timestamp;pressure;altitude;pressure_sealevel;temperature;humidity
74334;BME280;62753;40.394;-80.022;2023-04-03T00:00:18;97386.57;;;14.62;17.84
74334;BME280;62753;40.394;-80.022;2023-04-03T00:02:43;97388.20;;;14.98;17.11
74334;BME280;62753;40.394;-80.022;2023-04-03T00:05:08;97385.15;;;15.20;17.29
74334;BME280;62753;40.394;-80.022;2023-04-03T00:07:33;97388.75;;;14.92;17.28
74334;BME280;62753;40.394;-80.022;2023-04-03T00:09:59;97385.87;;;15.26;17.11
74334;BME280;62753;40.394;-80.022;2023-04-03T00:12:24;97383.48;;;15.50;16.55
74334;BME280;62753;40.394;-80.022;2023-04-03T00:14:49;97383.00;;;15.36;16.66
74334;BME280;62753;40.394;-80.022;2023-04-03T00:17:15;97386.27;;;15.41;16.76
74334;BME280;62753;40.394;-80.022;2023-04-03T00:19:40;97393.12;;;14.50;17.04
74334;BME280;62753;40.394;-80.022;2023-04-03T00:22:06;97388.74;;;15.19;17.20
74334;BME280;62753;40.394;-80.022;2023-04-03T00:24:31;97389.81;;;14.78;17.54
74334;BME280;62753;40.394;-80.022;2023-04-03T00:26:57;97391.97;;;14.91;18.05
74334;BME280;62753;40.394;-80.022;2023-04-03T00:29:22;97388.41;;;15.28;17.71
74334;BME280;62753;40.394;-80.022;2023-04-03T00:31:47;97396.65;;;15.09;17.98
74334;BME280;62753;40.394;-80.022;2023-04-03T00:34:13;97396.79;;;14.88;18.18
74334;BME280;62753;40.394;-80.022;2023-04-03T00:36:38;97396.32;;;14.26;18.83
74334;BME280;62753;40.394;-80.022;2023-04-03T00:39:04;97400.38;;;14.73;18.35
74334;BME280;62753;40.394;-80.022;2023-04-03T00:41:29;97402.79;;;14.26;19.04
74334;BME280;62753;40.394;-80.022;2023-04-03T00:43:55;97403.93;;;14.39;18.82
74334;BME280;62753;40.394;-80.022;2023-04-03T00:46:20;97405.68;;;14.20;18.92
74334;BME280;62753;40.394;-80.022;2023-04-03T00:48:47;97404.90;;;14.36;18.42
74334;BME280;62753;40.394;-80.022;2023-04-03T00:51:14;97409.53;;;14.06;18.67
74334;BME280;62753;40.394;-80.022;2023-04-03T00:53:40;97407.84;;;14.15;18.94
74334;BME280;62753;40.394;-80.022;2023-04-03T00:56:05;97406.60;;;14.20;19.31
74334;BME280;62753;40.394;-80.022;2023-04-03T00:58:33;97407.19;;;14.19;19.14
74334;BME280;62753;40.394;-80.022;2023-04-03T01:00:55;97407.59;;;14.80;18.63
74334;BME280;62753;40.394;-80.022;2023-04-03T01:03:18;97407.42;;;14.70;19.00
74334;BME280;62753;40.394;-80.022;2023-04-03T01:05:43;97407.61;;;13.96;19.69
74334;BME280;62753;40.394;-80.022;2023-04-03T01:08:09;97407.34;;;14.20;19.49
74334;BME280;62753;40.394;-80.022;2023-04-03T01:10:34;97406.00;;;14.11;19.88
74334;BME280;62753;40.394;-80.022;2023-04-03T01:13:00;97406.68;;;14.22;19.63
74334;BME280;62753;40.394;-80.022;2023-04-03T01:15:27;97406.06;;;14.61;19.79
74334;BME280;62753;40.394;-80.022;2023-04-03T01:17:51;97408.19;;;13.81;19.67
74334;BME280;62753;40.394;-80.022;2023-04-03T01:20:34;97407.07;;;14.36;19.63
74334;BME280;62753;40.394;-80.022;2023-04-03T01:22:48;97402.92;;;14.25;19.68
74334;BME280;62753;40.394;-80.022;2023-04-03T01:25:12;97400.98;;;13.59;20.44
74334;BME280;62753;40.394;-80.022;2023-04-03T01:27:32;97400.28;;;13.85;19.79
74334;BME280;62753;40.394;-80.022;2023-04-03T01:29:58;97406.40;;;13.68;20.12
74334;BME280;62753;40.394;-80.022;2023-04-03T01:32:23;97409.60;;;13.81;20.14
74334;BME280;62753;40.394;-80.022;2023-04-03T01:34:48;97410.35;;;13.69;20.73
74334;BME280;62753;40.394;-80.022;2023-04-03T01:37:13;97411.84;;;12.81;21.05
74334;BME280;62753;40.394;-80.022;2023-04-03T01:39:39;97413.51;;;12.17;21.63
74334;BME280;62753;40.394;-80.022;2023-04-03T01:42:05;97410.20;;;11.64;22.25
74334;BME280;62753;40.394;-80.022;2023-04-03T01:44:30;97405.48;;;11.87;22.70
74334;BME280;62753;40.394;-80.022;2023-04-03T01:46:55;97405.28;;;10.91;22.94
74334;BME280;62753;40.394;-80.022;2023-04-03T01:49:21;97407.55;;;10.21;24.74
74334;BME280;62753;40.394;-80.022;2023-04-03T01:51:46;97409.80;;;9.86;26.02
74334;BME280;62753;40.394;-80.022;2023-04-03T01:54:12;97412.62;;;8.98;28.70
74334;BME280;62753;40.394;-80.022;2023-04-03T01:56:37;97421.17;;;8.84;29.16
74334;BME280;62753;40.394;-80.022;2023-04-03T01:59:03;97417.15;;;9.04;28.92
74334;BME280;62753;40.394;-80.022;2023-04-03T02:01:28;97421.54;;;9.05;29.28
74334;BME280;62753;40.394;-80.022;2023-04-03T02:03:54;97418.47;;;9.73;29.13
74334;BME280;62753;40.394;-80.022;2023-04-03T02:06:19;97420.32;;;10.71;27.58
74334;BME280;62753;40.394;-80.022;2023-04-03T02:08:45;97421.67;;;11.18;27.15
74334;BME280;62753;40.394;-80.022;2023-04-03T02:11:10;97421.54;;;11.51;27.29
74334;BME280;62753;40.394;-80.022;2023-04-03T02:13:35;97420.92;;;11.64;26.39
74334;BME280;62753;40.394;-80.022;2023-04-03T02:16:07;97413.67;;;11.92;26.08
74334;BME280;62753;40.394;-80.022;2023-04-03T02:18:26;97408.02;;;12.25;25.68
74334;BME280;62753;40.394;-80.022;2023-04-03T02:20:52;97407.12;;;12.26;25.68
74334;BME280;62753;40.394;-80.022;2023-04-03T02:23:17;97408.62;;;12.11;25.71
74334;BME280;62753;40.394;-80.022;2023-04-03T02:25:43;97409.64;;;12.51;26.30
74334;BME280;62753;40.394;-80.022;2023-04-03T02:28:08;97410.52;;;12.34;26.20
74334;BME280;62753;40.394;-80.022;2023-04-03T02:30:34;97406.10;;;12.66;26.39
74334;BME280;62753;40.394;-80.022;2023-04-03T02:32:59;97406.16;;;12.47;26.70
74334;BME280;62753;40.394;-80.022;2023-04-03T02:35:25;97399.79;;;12.58;25.96
74334;BME280;62753;40.394;-80.022;2023-04-03T02:37:50;97400.61;;;12.22;26.99
74334;BME280;62753;40.394;-80.022;2023-04-03T02:40:16;97398.16;;;10.76;28.91
74334;BME280;62753;40.394;-80.022;2023-04-03T02:42:41;97394.43;;;11.37;28.55
74334;BME280;62753;40.394;-80.022;2023-04-03T02:45:08;97386.81;;;11.81;28.16
74334;BME280;62753;40.394;-80.022;2023-04-03T02:47:32;97387.36;;;12.01;27.86
74334;BME280;62753;40.394;-80.022;2023-04-03T02:49:58;97388.85;;;12.23;27.54
74334;BME280;62753;40.394;-80.022;2023-04-03T02:52:23;97384.86;;;11.93;27.61
74334;BME280;62753;40.394;-80.022;2023-04-03T02:54:48;97375.46;;;10.28;30.02
74334;BME280;62753;40.394;-80.022;2023-04-03T02:57:14;97367.48;;;10.89;30.00
74334;BME280;62753;40.394;-80.022;2023-04-03T02:59:39;97368.25;;;10.87;29.75
74334;BME280;62753;40.394;-80.022;2023-04-03T03:02:05;97365.11;;;10.66;30.70
74334;BME280;62753;40.394;-80.022;2023-04-03T03:04:30;97361.02;;;9.83;31.93
74334;BME280;62753;40.394;-80.022;2023-04-03T03:06:56;97355.69;;;9.72;31.93
74334;BME280;62753;40.394;-80.022;2023-04-03T03:09:27;97354.80;;;10.04;31.77
74334;BME280;62753;40.394;-80.022;2023-04-03T03:11:47;97351.07;;;10.84;30.58
74334;BME280;62753;40.394;-80.022;2023-04-03T03:14:12;97349.70;;;10.84;30.82
74334;BME280;62753;40.394;-80.022;2023-04-03T03:16:38;97348.30;;;10.67;30.86
74334;BME280;62753;40.394;-80.022;2023-04-03T03:19:03;97341.21;;;11.07;30.13
74334;BME280;62753;40.394;-80.022;2023-04-03T03:21:28;97342.83;;;11.23;29.78
74334;BME280;62753;40.394;-80.022;2023-04-03T03:23:54;97338.53;;;11.70;28.85
74334;BME280;62753;40.394;-80.022;2023-04-03T03:26:19;97339.05;;;11.59;28.66
74334;BME280;62753;40.394;-80.022;2023-04-03T03:28:45;97338.91;;;12.18;28.33
74334;BME280;62753;40.394;-80.022;2023-04-03T03:31:11;97338.32;;;12.50;27.73
74334;BME280;62753;40.394;-80.022;2023-04-03T03:33:36;97332.66;;;12.01;28.23
74334;BME280;62753;40.394;-80.022;2023-04-03T03:36:01;97328.83;;;12.31;28.23
74334;BME280;62753;40.394;-80.022;2023-04-03T03:38:27;97326.77;;;11.61;28.88
74334;BME280;62753;40.394;-80.022;2023-04-03T03:40:52;97325.23;;;11.90;29.34
74334;BME280;62753;40.394;-80.022;2023-04-03T03:43:18;97319.90;;;11.36;29.36
74334;BME280;62753;40.394;-80.022;2023-04-03T03:45:43;97318.49;;;12.28;28.81
74334;BME280;62753;40.394;-80.022;2023-04-03T03:48:09;97313.18;;;10.52;30.98
74334;BME280;62753;40.394;-80.022;2023-04-03T03:50:34;97308.24;;;10.86;30.97
74334;BME280;62753;40.394;-80.022;2023-04-03T03:52:59;97302.36;;;10.58;31.38
74334;BME280;62753;40.394;-80.022;2023-04-03T03:55:25;97303.44;;;10.76;31.62
74334;BME280;62753;40.394;-80.022;2023-04-03T03:57:51;97299.31;;;10.41;32.00
74334;BME280;62753;40.394;-80.022;2023-04-03T04:00:16;97294.37;;;8.90;34.51
74334;BME280;62753;40.394;-80.022;2023-04-03T04:02:42;97290.20;;;9.20;34.24
74334;BME280;62753;40.394;-80.022;2023-04-03T04:05:07;97284.31;;;9.37;34.12
74334;BME280;62753;40.394;-80.022;2023-04-03T04:07:32;97279.65;;;9.96;33.82
74334;BME280;62753;40.394;-80.022;2023-04-03T04:09:58;97277.29;;;9.43;33.88
74334;BME280;62753;40.394;-80.022;2023-04-03T04:12:24;97276.79;;;9.71;33.68
74334;BME280;62753;40.394;-80.022;2023-04-03T04:14:49;97268.48;;;9.80;33.41
74334;BME280;62753;40.394;-80.022;2023-04-03T04:17:15;97270.51;;;10.47;32.27
74334;BME280;62753;40.394;-80.022;2023-04-03T04:19:39;97274.19;;;9.77;33.51
74334;BME280;62753;40.394;-80.022;2023-04-03T04:22:05;97265.04;;;9.74;33.42
74334;BME280;62753;40.394;-80.022;2023-04-03T04:24:31;97256.28;;;9.52;33.89
74334;BME280;62753;40.394;-80.022;2023-04-03T04:26:57;97253.31;;;9.11;34.16
74334;BME280;62753;40.394;-80.022;2023-04-03T04:29:22;97252.00;;;9.23;34.88
74334;BME280;62753;40.394;-80.022;2023-04-03T04:31:47;97245.90;;;8.87;35.30
74334;BME280;62753;40.394;-80.022;2023-04-03T04:34:13;97243.38;;;8.59;36.00
74334;BME280;62753;40.394;-80.022;2023-04-03T04:36:38;97239.85;;;8.54;36.46
74334;BME280;62753;40.394;-80.022;2023-04-03T04:39:03;97242.47;;;9.11;35.61
74334;BME280;62753;40.394;-80.022;2023-04-03T04:41:29;97242.99;;;8.92;36.13
74334;BME280;62753;40.394;-80.022;2023-04-03T04:43:55;97239.75;;;8.38;36.35
74334;BME280;62753;40.394;-80.022;2023-04-03T04:46:20;97244.62;;;8.08;37.13
74334;BME280;62753;40.394;-80.022;2023-04-03T04:48:45;97240.47;;;7.92;36.84
74334;BME280;62753;40.394;-80.022;2023-04-03T04:51:11;97229.17;;;8.02;36.60
74334;BME280;62753;40.394;-80.022;2023-04-03T04:53:36;97232.22;;;8.14;37.03
74334;BME280;62753;40.394;-80.022;2023-04-03T04:56:01;97229.15;;;8.15;36.86
74334;BME280;62753;40.394;-80.022;2023-04-03T04:58:27;97226.80;;;7.95;37.72
74334;BME280;62753;40.394;-80.022;2023-04-03T05:00:58;97229.04;;;7.93;37.78
74334;BME280;62753;40.394;-80.022;2023-04-03T05:03:18;97226.28;;;7.41;38.03
74334;BME280;62753;40.394;-80.022;2023-04-03T05:05:44;97219.95;;;8.08;37.90
74334;BME280;62753;40.394;-80.022;2023-04-03T05:08:09;97212.89;;;8.44;36.99
74334;BME280;62753;40.394;-80.022;2023-04-03T05:10:35;97215.62;;;8.35;36.92
74334;BME280;62753;40.394;-80.022;2023-04-03T05:13:00;97211.60;;;7.42;37.86
74334;BME280;62753;40.394;-80.022;2023-04-03T05:15:26;97205.95;;;8.02;37.93
74334;BME280;62753;40.394;-80.022;2023-04-03T05:17:51;97203.73;;;7.65;38.66
74334;BME280;62753;40.394;-80.022;2023-04-03T05:20:17;97201.67;;;7.25;39.13
74334;BME280;62753;40.394;-80.022;2023-04-03T05:22:42;97194.72;;;7.40;39.16
74334;BME280;62753;40.394;-80.022;2023-04-03T05:25:09;97191.31;;;8.16;37.93
74334;BME280;62753;40.394;-80.022;2023-04-03T05:27:33;97180.41;;;7.55;39.04
74334;BME280;62753;40.394;-80.022;2023-04-03T05:29:59;97175.56;;;7.32;39.00
74334;BME280;62753;40.394;-80.022;2023-04-03T05:32:25;97174.85;;;7.65;39.04
74334;BME280;62753;40.394;-80.022;2023-04-03T05:34:50;97172.71;;;7.13;39.83
74334;BME280;62753;40.394;-80.022;2023-04-03T05:37:15;97162.42;;;7.30;39.29
74334;BME280;62753;40.394;-80.022;2023-04-03T05:39:41;97155.33;;;7.19;39.05
74334;BME280;62753;40.394;-80.022;2023-04-03T05:42:07;97149.85;;;7.63;39.37
74334;BME280;62753;40.394;-80.022;2023-04-03T05:44:32;97145.32;;;6.57;40.97
74334;BME280;62753;40.394;-80.022;2023-04-03T05:46:58;97146.81;;;6.76;41.34
74334;BME280;62753;40.394;-80.022;2023-04-03T05:49:23;97145.72;;;6.38;41.81
74334;BME280;62753;40.394;-80.022;2023-04-03T05:51:49;97138.20;;;6.00;43.11
74334;BME280;62753;40.394;-80.022;2023-04-03T05:54:18;97132.41;;;6.57;42.41
74334;BME280;62753;40.394;-80.022;2023-04-03T05:56:40;97126.52;;;6.85;41.54
74334;BME280;62753;40.394;-80.022;2023-04-03T05:59:06;97117.08;;;6.15;42.10
74334;BME280;62753;40.394;-80.022;2023-04-03T06:01:31;97121.24;;;6.71;41.15
74334;BME280;62753;40.394;-80.022;2023-04-03T06:03:57;97109.52;;;7.21;40.40
74334;BME280;62753;40.394;-80.022;2023-04-03T06:06:22;97107.51;;;6.67;41.28
74334;BME280;62753;40.394;-80.022;2023-04-03T06:08:48;97103.45;;;6.24;41.99
74334;BME280;62753;40.394;-80.022;2023-04-03T06:11:13;97103.96;;;6.55;42.25
74334;BME280;62753;40.394;-80.022;2023-04-03T06:13:38;97104.23;;;6.62;41.14
74334;BME280;62753;40.394;-80.022;2023-04-03T06:16:05;97104.14;;;7.15;40.95
74334;BME280;62753;40.394;-80.022;2023-04-03T06:18:29;97104.82;;;6.89;40.70
74334;BME280;62753;40.394;-80.022;2023-04-03T06:20:55;97098.18;;;6.35;42.31
74334;BME280;62753;40.394;-80.022;2023-04-03T06:23:21;97099.91;;;6.50;41.87
74334;BME280;62753;40.394;-80.022;2023-04-03T06:25:46;97100.46;;;7.29;40.83
74334;BME280;62753;40.394;-80.022;2023-04-03T06:28:12;97099.58;;;6.99;41.30
74334;BME280;62753;40.394;-80.022;2023-04-03T06:30:37;97098.10;;;6.61;41.64
74334;BME280;62753;40.394;-80.022;2023-04-03T06:33:03;97090.61;;;6.53;41.67
74334;BME280;62753;40.394;-80.022;2023-04-03T06:35:28;97085.68;;;6.35;42.11
74334;BME280;62753;40.394;-80.022;2023-04-03T06:37:53;97083.57;;;6.64;41.84
74334;BME280;62753;40.394;-80.022;2023-04-03T06:40:21;97085.49;;;7.06;41.26
74334;BME280;62753;40.394;-80.022;2023-04-03T06:42:45;97086.79;;;7.03;40.90
74334;BME280;62753;40.394;-80.022;2023-04-03T06:45:11;97092.07;;;7.24;40.90
74334;BME280;62753;40.394;-80.022;2023-04-03T06:47:35;97100.28;;;7.24;40.35
74334;BME280;62753;40.394;-80.022;2023-04-03T06:50:01;97108.17;;;7.21;40.27
74334;BME280;62753;40.394;-80.022;2023-04-03T06:52:26;97111.31;;;7.55;39.39
74334;BME280;62753;40.394;-80.022;2023-04-03T06:54:52;97113.83;;;7.64;39.53
74334;BME280;62753;40.394;-80.022;2023-04-03T06:57:18;97111.36;;;7.75;39.68
74334;BME280;62753;40.394;-80.022;2023-04-03T06:59:43;97106.32;;;7.14;40.76
74334;BME280;62753;40.394;-80.022;2023-04-03T07:02:11;97100.76;;;7.09;40.50
74334;BME280;62753;40.394;-80.022;2023-04-03T07:04:34;97092.47;;;6.48;41.17
74334;BME280;62753;40.394;-80.022;2023-04-03T07:07:00;97089.18;;;7.44;39.91
74334;BME280;62753;40.394;-80.022;2023-04-03T07:09:25;97089.42;;;7.47;39.76
74334;BME280;62753;40.394;-80.022;2023-04-03T07:11:51;97089.67;;;7.53;39.33
74334;BME280;62753;40.394;-80.022;2023-04-03T07:14:16;97087.59;;;7.67;39.50
74334;BME280;62753;40.394;-80.022;2023-04-03T07:16:42;97091.04;;;8.20;38.27
74334;BME280;62753;40.394;-80.022;2023-04-03T07:19:07;97095.09;;;8.54;37.26
74334;BME280;62753;40.394;-80.022;2023-04-03T07:21:32;97091.91;;;8.69;36.96
74334;BME280;62753;40.394;-80.022;2023-04-03T07:23:58;97088.02;;;8.45;36.71
74334;BME280;62753;40.394;-80.022;2023-04-03T07:26:23;97089.13;;;9.06;36.24
74334;BME280;62753;40.394;-80.022;2023-04-03T07:28:49;97089.53;;;8.75;36.08
74334;BME280;62753;40.394;-80.022;2023-04-03T07:31:16;97089.59;;;8.20;37.89
74334;BME280;62753;40.394;-80.022;2023-04-03T07:33:41;97087.60;;;7.44;39.42
74334;BME280;62753;40.394;-80.022;2023-04-03T07:36:07;97091.81;;;6.88;40.64
74334;BME280;62753;40.394;-80.022;2023-04-03T07:38:32;97089.35;;;7.56;39.08
74334;BME280;62753;40.394;-80.022;2023-04-03T07:40:57;97089.81;;;6.98;40.51
74334;BME280;62753;40.394;-80.022;2023-04-03T07:43:23;97088.17;;;6.97;40.68
74334;BME280;62753;40.394;-80.022;2023-04-03T07:45:49;97089.11;;;6.28;41.60
74334;BME280;62753;40.394;-80.022;2023-04-03T07:48:14;97086.36;;;7.39;40.12
74334;BME280;62753;40.394;-80.022;2023-04-03T07:50:40;97081.79;;;7.44;39.59
74334;BME280;62753;40.394;-80.022;2023-04-03T07:53:05;97088.84;;;7.59;39.04
74334;BME280;62753;40.394;-80.022;2023-04-03T07:55:32;97097.05;;;8.07;38.86
74334;BME280;62753;40.394;-80.022;2023-04-03T07:57:56;97104.87;;;7.42;39.51
74334;BME280;62753;40.394;-80.022;2023-04-03T08:00:22;97102.46;;;7.22;40.31
74334;BME280;62753;40.394;-80.022;2023-04-03T08:02:47;97092.13;;;7.66;39.13
74334;BME280;62753;40.394;-80.022;2023-04-03T08:05:13;97091.37;;;7.09;39.45
74334;BME280;62753;40.394;-80.022;2023-04-03T08:07:38;97090.58;;;8.22;37.95
74334;BME280;62753;40.394;-80.022;2023-04-03T08:10:04;97094.69;;;7.91;38.19
74334;BME280;62753;40.394;-80.022;2023-04-03T08:12:29;97094.61;;;7.42;38.71
74334;BME280;62753;40.394;-80.022;2023-04-03T08:14:55;97096.83;;;8.03;38.04
74334;BME280;62753;40.394;-80.022;2023-04-03T08:17:20;97094.79;;;8.13;38.10
74334;BME280;62753;40.394;-80.022;2023-04-03T08:19:46;97091.60;;;8.01;37.73
74334;BME280;62753;40.394;-80.022;2023-04-03T08:22:11;97091.29;;;8.18;37.49
74334;BME280;62753;40.394;-80.022;2023-04-03T08:24:37;97093.79;;;7.72;37.96
74334;BME280;62753;40.394;-80.022;2023-04-03T08:27:03;97094.41;;;7.91;38.12
74334;BME280;62753;40.394;-80.022;2023-04-03T08:29:28;97092.14;;;7.13;39.00
74334;BME280;62753;40.394;-80.022;2023-04-03T08:31:53;97082.30;;;8.09;38.72
74334;BME280;62753;40.394;-80.022;2023-04-03T08:34:19;97078.21;;;7.75;38.63
74334;BME280;62753;40.394;-80.022;2023-04-03T08:36:44;97078.21;;;8.11;38.24
74334;BME280;62753;40.394;-80.022;2023-04-03T08:39:09;97083.84;;;8.38;37.10
74334;BME280;62753;40.394;-80.022;2023-04-03T08:41:36;97090.77;;;8.89;36.22
74334;BME280;62753;40.394;-80.022;2023-04-03T08:44:07;97091.35;;;8.91;35.37
74334;BME280;62753;40.394;-80.022;2023-04-03T08:46:36;97092.38;;;9.55;34.59
74334;BME280;62753;40.394;-80.022;2023-04-03T08:48:51;97089.90;;;9.40;34.69
74334;BME280;62753;40.394;-80.022;2023-04-03T08:51:19;97087.16;;;8.63;35.29
74334;BME280;62753;40.394;-80.022;2023-04-03T08:53:48;97098.24;;;9.07;35.26
74334;BME280;62753;40.394;-80.022;2023-04-03T08:56:10;97102.96;;;8.89;35.21
74334;BME280;62753;40.394;-80.022;2023-04-03T08:58:41;97100.48;;;8.64;36.62
74334;BME280;62753;40.394;-80.022;2023-04-03T09:01:02;97101.47;;;9.26;35.34
74334;BME280;62753;40.394;-80.022;2023-04-03T09:03:25;97100.66;;;8.87;35.30
74334;BME280;62753;40.394;-80.022;2023-04-03T09:05:54;97096.89;;;9.21;35.06
74334;BME280;62753;40.394;-80.022;2023-04-03T09:08:23;97087.60;;;8.82;35.71
74334;BME280;62753;40.394;-80.022;2023-04-03T09:10:42;97078.16;;;7.50;37.28
74334;BME280;62753;40.394;-80.022;2023-04-03T09:13:13;97077.11;;;6.91;39.53
74334;BME280;62753;40.394;-80.022;2023-04-03T09:15:33;97074.38;;;7.06;40.53
74334;BME280;62753;40.394;-80.022;2023-04-03T09:18:04;97075.09;;;6.51;41.02
74334;BME280;62753;40.394;-80.022;2023-04-03T09:20:30;97067.94;;;5.76;43.20
74334;BME280;62753;40.394;-80.022;2023-04-03T09:22:49;97065.81;;;6.19;42.67
74334;BME280;62753;40.394;-80.022;2023-04-03T09:25:17;97066.53;;;6.31;42.42
74334;BME280;62753;40.394;-80.022;2023-04-03T09:27:40;97052.68;;;5.78;44.10
74334;BME280;62753;40.394;-80.022;2023-04-03T09:30:08;97044.12;;;5.28;45.37
74334;BME280;62753;40.394;-80.022;2023-04-03T09:32:32;97038.43;;;4.70;46.45
74334;BME280;62753;40.394;-80.022;2023-04-03T09:34:59;97037.51;;;5.01;46.21
74334;BME280;62753;40.394;-80.022;2023-04-03T09:37:35;97040.54;;;5.03;45.40
74334;BME280;62753;40.394;-80.022;2023-04-03T09:39:50;97051.77;;;6.53;42.92
74334;BME280;62753;40.394;-80.022;2023-04-03T09:42:18;97047.33;;;6.36;43.23
74334;BME280;62753;40.394;-80.022;2023-04-03T09:44:38;97051.39;;;6.39;42.18
74334;BME280;62753;40.394;-80.022;2023-04-03T09:49:29;97051.73;;;5.87;42.76
74334;BME280;62753;40.394;-80.022;2023-04-03T09:51:54;97040.59;;;5.70;43.89
74334;BME280;62753;40.394;-80.022;2023-04-03T09:54:33;97036.73;;;5.90;43.20
74334;BME280;62753;40.394;-80.022;2023-04-03T09:56:49;97037.47;;;6.37;42.36
74334;BME280;62753;40.394;-80.022;2023-04-03T09:59:14;97038.13;;;5.78;43.62
74334;BME280;62753;40.394;-80.022;2023-04-03T10:01:38;97043.75;;;5.41;44.40
74334;BME280;62753;40.394;-80.022;2023-04-03T10:04:07;97038.21;;;5.43;44.74
74334;BME280;62753;40.394;-80.022;2023-04-03T10:06:31;97044.40;;;5.20;45.50
74334;BME280;62753;40.394;-80.022;2023-04-03T10:08:59;97050.75;;;5.32;46.54
74334;BME280;62753;40.394;-80.022;2023-04-03T10:11:19;97055.48;;;5.15;45.27
74334;BME280;62753;40.394;-80.022;2023-04-03T10:13:51;97054.51;;;5.21;46.04
74334;BME280;62753;40.394;-80.022;2023-04-03T10:16:13;97047.96;;;5.84;45.25
74334;BME280;62753;40.394;-80.022;2023-04-03T10:18:40;97047.58;;;5.47;45.56
74334;BME280;62753;40.394;-80.022;2023-04-03T10:21:06;97049.17;;;5.67;44.94
74334;BME280;62753;40.394;-80.022;2023-04-03T10:23:30;97053.16;;;5.67;44.71
74334;BME280;62753;40.394;-80.022;2023-04-03T10:26:02;97048.65;;;5.91;44.09
74334;BME280;62753;40.394;-80.022;2023-04-03T10:28:22;97054.07;;;6.70;42.53
74334;BME280;62753;40.394;-80.022;2023-04-03T10:30:50;97054.66;;;6.02;43.17
74334;BME280;62753;40.394;-80.022;2023-04-03T10:33:20;97062.04;;;5.71;43.89
74334;BME280;62753;40.394;-80.022;2023-04-03T10:35:42;97062.83;;;5.64;43.70
74334;BME280;62753;40.394;-80.022;2023-04-03T10:38:05;97064.38;;;6.16;42.86
74334;BME280;62753;40.394;-80.022;2023-04-03T10:40:30;97067.10;;;6.07;43.15
74334;BME280;62753;40.394;-80.022;2023-04-03T10:42:55;97073.01;;;6.80;41.54
74334;BME280;62753;40.394;-80.022;2023-04-03T10:45:23;97075.05;;;6.76;41.20
74334;BME280;62753;40.394;-80.022;2023-04-03T10:47:48;97081.73;;;7.42;39.97
74334;BME280;62753;40.394;-80.022;2023-04-03T10:52:39;97087.45;;;8.32;37.76
74334;BME280;62753;40.394;-80.022;2023-04-03T10:55:05;97087.62;;;8.76;36.10
74334;BME280;62753;40.394;-80.022;2023-04-03T10:57:25;97084.07;;;9.28;35.33
74334;BME280;62753;40.394;-80.022;2023-04-03T10:59:53;97084.10;;;8.93;36.08
74334;BME280;62753;40.394;-80.022;2023-04-03T11:02:22;97088.66;;;9.48;34.67
74334;BME280;62753;40.394;-80.022;2023-04-03T11:04:41;97090.86;;;9.34;34.91
74334;BME280;62753;40.394;-80.022;2023-04-03T11:07:10;97092.88;;;9.04;35.41
74334;BME280;62753;40.394;-80.022;2023-04-03T11:09:34;97091.16;;;8.79;36.19
74334;BME280;62753;40.394;-80.022;2023-04-03T11:12:02;97092.43;;;8.80;36.48
74334;BME280;62753;40.394;-80.022;2023-04-03T11:14:26;97088.17;;;9.51;34.64
74334;BME280;62753;40.394;-80.022;2023-04-03T11:16:50;97090.56;;;8.65;35.94
74334;BME280;62753;40.394;-80.022;2023-04-03T11:19:18;97092.40;;;8.72;36.24
74334;BME280;62753;40.394;-80.022;2023-04-03T11:21:42;97094.71;;;8.23;36.73
74334;BME280;62753;40.394;-80.022;2023-04-03T11:24:09;97092.10;;;8.52;36.85
74334;BME280;62753;40.394;-80.022;2023-04-03T11:26:35;97091.28;;;8.57;37.15
74334;BME280;62753;40.394;-80.022;2023-04-03T11:29:04;97091.86;;;9.00;36.22
74334;BME280;62753;40.394;-80.022;2023-04-03T11:31:33;97093.92;;;9.00;36.53
74334;BME280;62753;40.394;-80.022;2023-04-03T11:33:55;97093.85;;;8.69;36.50
74334;BME280;62753;40.394;-80.022;2023-04-03T11:36:19;97093.09;;;8.54;37.04
74334;BME280;62753;40.394;-80.022;2023-04-03T11:38:41;97086.55;;;9.10;35.92
74334;BME280;62753;40.394;-80.022;2023-04-03T11:41:05;97083.79;;;9.16;35.73
74334;BME280;62753;40.394;-80.022;2023-04-03T11:43:30;97082.93;;;8.99;35.70
74334;BME280;62753;40.394;-80.022;2023-04-03T11:45:56;97085.40;;;9.16;36.05
74334;BME280;62753;40.394;-80.022;2023-04-03T11:50:46;97092.05;;;8.91;35.67
74334;BME280;62753;40.394;-80.022;2023-04-03T11:53:28;97095.36;;;9.29;35.63
74334;BME280;62753;40.394;-80.022;2023-04-03T11:58:11;97093.76;;;9.77;34.91
74334;BME280;62753;40.394;-80.022;2023-04-03T12:02:53;97095.81;;;10.19;33.85
74334;BME280;62753;40.394;-80.022;2023-04-03T12:05:27;97096.30;;;9.56;34.77
74334;BME280;62753;40.394;-80.022;2023-04-03T12:07:44;97099.96;;;8.28;37.08
74334;BME280;62753;40.394;-80.022;2023-04-03T12:10:18;97099.71;;;8.89;37.23
74334;BME280;62753;40.394;-80.022;2023-04-03T12:12:38;97096.97;;;9.38;36.01
74334;BME280;62753;40.394;-80.022;2023-04-03T12:17:27;97102.77;;;8.61;37.61
74334;BME280;62753;40.394;-80.022;2023-04-03T12:19:51;97103.00;;;8.54;37.64
74334;BME280;62753;40.394;-80.022;2023-04-03T12:22:18;97105.12;;;8.49;37.59
74334;BME280;62753;40.394;-80.022;2023-04-03T12:24:44;97107.40;;;9.16;36.88
74334;BME280;62753;40.394;-80.022;2023-04-03T12:29:35;97105.57;;;8.42;37.51
74334;BME280;62753;40.394;-80.022;2023-04-03T12:32:06;97108.62;;;8.87;37.29
74334;BME280;62753;40.394;-80.022;2023-04-03T12:36:58;97109.00;;;8.68;37.27
74334;BME280;62753;40.394;-80.022;2023-04-03T12:39:25;97107.58;;;10.63;34.96
74334;BME280;62753;40.394;-80.022;2023-04-03T12:41:49;97108.69;;;11.37;33.32
74334;BME280;62753;40.394;-80.022;2023-04-03T12:44:22;97115.48;;;10.87;33.45
74334;BME280;62753;40.394;-80.022;2023-04-03T12:46:37;97119.09;;;11.52;32.22
74334;BME280;62753;40.394;-80.022;2023-04-03T12:48:58;97119.42;;;12.10;31.52
74334;BME280;62753;40.394;-80.022;2023-04-03T12:51:26;97122.91;;;11.99;31.20
74334;BME280;62753;40.394;-80.022;2023-04-03T12:53:49;97121.65;;;11.99;31.53
74334;BME280;62753;40.394;-80.022;2023-04-03T12:56:21;97126.84;;;12.57;30.30